Tropical Cyclones
[Index]
Main Index Home Page Stock Weather Photos Extreme Storms Discussion Storm News and Storm Chasing Reports Tropical Cyclones / Hurricanes / Typhoons Weather Data and Links Wild Fires / Bushfires Weather Observation Techniques Weather Picture Catalogue Tornado Pictures and Reports Stock Video Footage and DVDs for sale
Season 2001-2002 Tropical Cyclone WAKA Track Map
Season 2001-2002 Summaries: [BoM-AU] [JTWC-AU] [JTWC-SIO] [JTWC-SPAC] [JTWC-SH]
<<- Previous TC | JTWC 2001-2002 Season | Next TC ->>

click for intensity scale information  Lat/long Grid: Show Hide

 Date Labels: Show Hide

Joint Typhoon Warning Centre Cyclone Data

Name: WAKA

28 Dec 2001 12:00 UTC to 02 Jan 2002 00:00 UTC

    date/time    lat    long     hPa   cat  kts
2001-12-28 12   10.4   175.1W   1002         25          
2001-12-28 18   10.4   174.7W   1002         30          
2001-12-29 00   10.8   174.5W   1002         30          
2001-12-29 06   11.5   174.8W    997         35          
2001-12-29 12   12.0   175.0W    997         35          
2001-12-29 18   12.5   175.4W    994    2    55          
2001-12-30 00   13.0   175.8W    976    2    65          
2001-12-30 06   13.7   175.9W    972    2    70          
2001-12-30 12   14.3   175.8W    954    3    90          
2001-12-30 18   15.3   175.6W    954    3    90          
2001-12-31 00   16.3   175.3W    944    4   100          
2001-12-31 06   17.4   174.6W    944    4   100          
2001-12-31 12   18.8   173.9W    944    4   100          
2001-12-31 18   20.3   172.8W    962    4   100          
2002-01-01 00   22.0   171.6W    970    3    90          
2002-01-01 06   23.7   170.4W    981    3    75          
2002-01-01 12   25.6   169.2W    987    2    65          
2002-01-01 18   28.0   167.9W    984    2    55          
2002-01-02 00   29.3   167.6W   1000    1    45          
Winds are 1-min average.

Tropical cyclone tracks developed by Michael Bath using data from the Joint Typhoon Warning Centre Best Tracks and Google Maps.


[Australian Severe Weather index] [Copyright Notice] [Email Contacts] [Search This Site] [Privacy Policy]
Document: tropical_cyclone_waka.htm Updated: 28 June 2017